Time;durP1;ratioP1;P1;durP2;ratioP2;P2;SDS_P1;SDS_P2;PMS_P1;PMS_P2;Temp;Humidity;BMP_temperature;BMP_pressure;BME280_temperature;BME280_humidity;BME280_pressure;Samples;Min_cycle;Max_cycle;Signal;HPM_P1;HPM_P2
2023/12/06 00:02:00;;;;;;;0.40;0.40;;;;;;;1.61;100.00;100671.69;5036100;28;20048;-80
2023/12/06 00:04:26;;;;;;;0.50;0.50;;;;;;;1.58;100.00;100675.41;5019533;28;20087;-80
2023/12/06 00:06:52;;;;;;;0.40;0.40;;;;;;;1.62;100.00;100666.28;5019139;28;20032;-80
2023/12/06 00:09:17;;;;;;;0.40;0.40;;;;;;;1.63;100.00;100667.09;5052349;28;20036;-80
2023/12/06 00:11:43;;;;;;;0.40;0.40;;;;;;;1.63;100.00;100669.75;5020175;28;20036;-80
2023/12/06 00:14:09;;;;;;;0.40;0.40;;;;;;;1.67;100.00;100668.56;5019788;28;20114;-81
2023/12/06 00:16:39;;;;;;;0.40;0.40;;;;;;;1.73;100.00;100660.97;5019855;28;20067;-80
2023/12/06 00:19:04;;;;;;;0.40;0.40;;;;;;;1.77;100.00;100661.53;5035797;28;20475;-80
2023/12/06 00:21:30;;;;;;;3.35;3.25;;;;;;;1.76;100.00;100644.81;5019780;28;20036;-80
2023/12/06 00:23:56;;;;;;;0.40;0.40;;;;;;;1.82;100.00;100650.59;5019841;28;20094;-80
2023/12/06 00:26:22;;;;;;;0.50;0.50;;;;;;;1.84;100.00;100633.59;5019812;28;20458;-80
2023/12/06 00:28:48;;;;;;;0.50;0.50;;;;;;;1.81;100.00;100622.41;5020135;28;20120;-81
2023/12/06 00:31:13;;;;;;;0.40;0.40;;;;;;;1.88;100.00;100621.78;5035600;28;20044;-80
2023/12/06 00:33:39;;;;;;;0.50;0.50;;;;;;;1.85;100.00;100611.41;5019899;28;20032;-80
2023/12/06 00:36:05;;;;;;;0.40;0.40;;;;;;;1.87;100.00;100617.44;5019414;28;20036;-80
2023/12/06 00:38:32;;;;;;;0.40;0.40;;;;;;;1.96;100.00;100613.22;5019502;28;20502;-80
2023/12/06 00:41:00;;;;;;;0.50;0.50;;;;;;;2.02;100.00;100607.41;5019239;28;20139;-80
2023/12/06 00:43:25;;;;;;;0.40;0.40;;;;;;;2.12;100.00;100607.50;5035798;28;20108;-79
2023/12/06 00:45:51;;;;;;;0.50;0.50;;;;;;;2.19;100.00;100606.03;5035746;28;20123;-80
2023/12/06 00:48:17;;;;;;;0.40;0.40;;;;;;;2.26;100.00;100611.69;5018975;28;20095;-80
2023/12/06 00:50:43;;;;;;;0.50;0.50;;;;;;;2.32;100.00;100612.00;5019170;28;20029;-81
2023/12/06 00:53:09;;;;;;;0.50;0.50;;;;;;;2.45;100.00;100603.88;5020027;28;20040;-80
2023/12/06 00:55:34;;;;;;;0.50;0.50;;;;;;;2.51;100.00;100592.75;5019401;28;20059;-80
2023/12/06 00:58:00;;;;;;;0.45;0.45;;;;;;;2.53;100.00;100584.66;5019421;28;20037;-80
2023/12/06 01:00:26;;;;;;;0.40;0.40;;;;;;;2.67;100.00;100604.75;5019445;28;20040;-80
2023/12/06 01:02:51;;;;;;;0.50;0.50;;;;;;;2.68;100.00;100604.63;5019372;28;20123;-80
2023/12/06 01:05:17;;;;;;;0.40;0.40;;;;;;;2.74;100.00;100595.31;5019392;28;20091;-80
2023/12/06 01:07:43;;;;;;;0.50;0.50;;;;;;;2.78;100.00;100586.09;5019328;28;20372;-80
2023/12/06 01:10:09;;;;;;;0.40;0.40;;;;;;;2.82;100.00;100587.53;5019188;28;20072;-80
2023/12/06 01:12:35;;;;;;;0.40;0.40;;;;;;;2.88;100.00;100592.31;5039418;28;20057;-80
2023/12/06 01:15:03;;;;;;;0.40;0.40;;;;;;;2.82;100.00;100576.91;5039216;28;20029;-80
2023/12/06 01:17:28;;;;;;;0.40;0.40;;;;;;;2.88;100.00;100576.38;5039139;28;20028;-80
2023/12/06 01:19:54;;;;;;;0.40;0.40;;;;;;;2.91;100.00;100580.59;5022940;28;20028;-80
2023/12/06 01:22:20;;;;;;;0.40;0.40;;;;;;;2.88;100.00;100568.41;5022711;28;20036;-80
2023/12/06 01:24:47;;;;;;;0.43;0.43;;;;;;;2.80;100.00;100557.59;5022840;28;20032;-80
2023/12/06 01:27:12;;;;;;;0.50;0.50;;;;;;;2.82;100.00;100566.28;5023330;28;20349;-80
2023/12/06 01:29:38;;;;;;;0.50;0.50;;;;;;;2.81;100.00;100559.31;5023164;28;20031;-80
2023/12/06 01:32:04;;;;;;;0.40;0.40;;;;;;;2.76;100.00;100554.38;5022844;28;20051;-79
2023/12/06 01:34:33;;;;;;;0.40;0.40;;;;;;;2.70;100.00;100546.06;5039109;28;20033;-79
2023/12/06 01:36:59;;;;;;;0.40;0.40;;;;;;;2.74;100.00;100545.69;5022721;28;20040;-79
2023/12/06 01:39:25;;;;;;;0.40;0.40;;;;;;;2.75;100.00;100550.06;5039179;28;20040;-79
2023/12/06 01:41:53;;;;;;;0.40;0.40;;;;;;;2.77;100.00;100552.56;5022305;28;20033;-79
2023/12/06 01:44:19;;;;;;;0.40;0.40;;;;;;;2.78;100.00;100538.31;5022711;28;20466;-79
2023/12/06 01:46:45;;;;;;;0.40;0.40;;;;;;;2.83;100.00;100544.94;5022436;28;20039;-79
2023/12/06 01:49:12;;;;;;;0.40;0.40;;;;;;;2.84;100.00;100535.97;5022346;28;20033;-79
2023/12/06 01:51:38;;;;;;;0.40;0.40;;;;;;;2.92;100.00;100532.66;5022456;28;20118;-79
2023/12/06 01:54:04;;;;;;;0.50;0.50;;;;;;;2.93;100.00;100522.88;5022952;28;20106;-79
2023/12/06 01:56:30;;;;;;;0.50;0.50;;;;;;;2.94;100.00;100527.19;5038288;28;20414;-79
2023/12/06 01:58:56;;;;;;;0.50;0.50;;;;;;;2.97;100.00;100527.81;5038609;28;20044;-79
2023/12/06 02:01:23;;;;;;;0.50;0.50;;;;;;;2.96;100.00;100515.47;5022241;28;20060;-80
2023/12/06 02:03:49;;;;;;;0.40;0.40;;;;;;;3.00;100.00;100519.56;5022145;28;20040;-80
2023/12/06 02:06:14;;;;;;;0.40;0.40;;;;;;;3.00;100.00;100510.75;5022075;28;20032;-80
2023/12/06 02:08:42;;;;;;;0.40;0.40;;;;;;;3.03;100.00;100511.31;5022041;28;20033;-80
2023/12/06 02:11:07;;;;;;;0.40;0.40;;;;;;;3.01;100.00;100507.94;5022082;28;20460;-80
2023/12/06 02:13:33;;;;;;;0.50;0.50;;;;;;;3.03;100.00;100498.03;5021988;28;20025;-80
2023/12/06 02:15:59;;;;;;;0.50;0.50;;;;;;;3.08;100.00;100503.78;5021983;28;20203;-80
2023/12/06 02:18:26;;;;;;;0.50;0.50;;;;;;;3.08;100.00;100489.69;5038403;28;20036;-79
2023/12/06 02:20:53;;;;;;;0.40;0.40;;;;;;;3.11;100.00;100491.22;5021902;28;20090;-79
2023/12/06 02:23:21;;;;;;;0.50;0.50;;;;;;;3.15;100.00;100485.53;5020993;28;20470;-80
2023/12/06 02:25:47;;;;;;;0.40;0.40;;;;;;;3.14;100.00;100483.00;5021878;28;20036;-80
2023/12/06 02:28:12;;;;;;;0.40;0.40;;;;;;;3.18;100.00;100484.41;5038234;28;20451;-80
2023/12/06 02:30:38;;;;;;;0.40;0.40;;;;;;;3.19;100.00;100464.81;5021209;28;20025;-79
2023/12/06 02:33:04;;;;;;;0.40;0.40;;;;;;;3.28;100.00;100470.19;5021525;28;20118;-80
2023/12/06 02:35:41;;;;;;;0.40;0.40;;;;;;;3.33;100.00;100467.09;5022276;28;20032;-80
2023/12/06 02:38:07;;;;;;;0.50;0.50;;;;;;;3.38;100.00;100462.22;5021606;28;20041;-80
2023/12/06 02:40:34;;;;;;;0.40;0.40;;;;;;;3.43;100.00;100459.97;5021477;28;20100;-80
2023/12/06 02:42:59;;;;;;;0.40;0.40;;;;;;;3.47;100.00;100458.75;5037621;28;20090;-79
2023/12/06 02:45:25;;;;;;;0.40;0.40;;;;;;;3.51;100.00;100457.47;5021283;28;20029;-79
2023/12/06 02:47:52;;;;;;;0.40;0.40;;;;;;;3.52;100.00;100455.69;5021428;28;20486;-80
2023/12/06 02:50:17;;;;;;;0.50;0.50;;;;;;;3.56;100.00;100446.44;5037268;28;20040;-81
2023/12/06 02:52:43;;;;;;;0.40;0.40;;;;;;;3.59;100.00;100447.97;5021288;28;20103;-80
2023/12/06 02:55:09;;;;;;;0.40;0.40;;;;;;;3.61;100.00;100433.56;5020752;28;20092;-80
2023/12/06 02:57:35;;;;;;;0.40;0.40;;;;;;;3.64;100.00;100430.63;5021242;28;20029;-80
2023/12/06 03:00:00;;;;;;;0.40;0.40;;;;;;;3.69;100.00;100432.88;5020933;28;20029;-79
2023/12/06 03:02:26;;;;;;;0.40;0.40;;;;;;;3.72;100.00;100424.63;5021143;28;20029;-79
2023/12/06 03:04:52;;;;;;;0.40;0.40;;;;;;;3.74;100.00;100417.34;5021231;28;20037;-80
2023/12/06 03:07:17;;;;;;;0.40;0.40;;;;;;;3.76;100.00;100415.41;5020965;28;20494;-80
2023/12/06 03:09:43;;;;;;;0.40;0.40;;;;;;;3.77;100.00;100413.56;5020858;28;20052;-80
2023/12/06 03:12:09;;;;;;;0.40;0.40;;;;;;;3.85;100.00;100419.84;5021397;28;20036;-80
2023/12/06 03:14:34;;;;;;;0.40;0.40;;;;;;;3.88;100.00;100419.56;5021172;28;20379;-80
2023/12/06 03:17:00;;;;;;;0.40;0.40;;;;;;;3.82;100.00;100403.34;5020900;28;20543;-80
2023/12/06 03:19:26;;;;;;;0.40;0.40;;;;;;;3.94;100.00;100420.81;5037383;28;20033;-79
2023/12/06 03:21:51;;;;;;;0.50;0.50;;;;;;;3.95;100.00;100412.72;5053637;28;20060;-80
2023/12/06 03:24:17;;;;;;;0.30;0.30;;;;;;;4.01;100.00;100408.66;5037167;28;20059;-80
2023/12/06 03:26:43;;;;;;;0.50;0.50;;;;;;;4.05;100.00;100410.06;5021286;28;20047;-80
2023/12/06 03:29:08;;;;;;;0.50;0.50;;;;;;;4.11;100.00;100411.31;5020512;28;20479;-80
2023/12/06 03:31:34;;;;;;;0.40;0.40;;;;;;;4.13;100.00;100402.19;5020402;28;20141;-80
2023/12/06 03:34:00;;;;;;;0.40;0.40;;;;;;;4.17;100.00;100400.91;5019723;28;20180;-81
2023/12/06 03:36:25;;;;;;;0.40;0.40;;;;;;;4.21;100.00;100384.66;5020215;28;20120;-80
2023/12/06 03:38:54;;;;;;;0.40;0.40;;;;;;;4.25;100.00;100386.06;5036799;28;20349;-81
2023/12/06 03:41:20;;;;;;;0.40;0.40;;;;;;;4.26;100.00;100377.94;5020162;28;20040;-80
2023/12/06 03:43:46;;;;;;;0.45;0.45;;;;;;;4.30;100.00;100367.84;5020126;28;20040;-80
2023/12/06 03:46:11;;;;;;;0.40;0.40;;;;;;;4.33;100.00;100365.72;5020465;28;20040;-80
2023/12/06 03:48:37;;;;;;;0.40;0.40;;;;;;;4.41;100.00;100357.84;5019723;28;20044;-80
2023/12/06 03:51:03;;;;;;;0.40;0.40;;;;;;;4.49;100.00;100351.78;5020300;28;20391;-80
2023/12/06 03:53:29;;;;;;;0.40;0.40;;;;;;;4.52;100.00;100353.31;5020159;28;20040;-80
2023/12/06 03:55:54;;;;;;;0.40;0.40;;;;;;;4.63;100.00;100353.13;5020165;28;20152;-80
2023/12/06 03:58:21;;;;;;;0.40;0.40;;;;;;;4.63;100.00;100348.66;5019965;28;20426;-80
2023/12/06 04:00:46;;;;;;;0.40;0.40;;;;;;;4.62;100.00;100340.81;5020124;28;20033;-79
2023/12/06 04:03:12;;;;;;;0.40;0.40;;;;;;;4.62;100.00;100330.16;5019841;28;20148;-80
2023/12/06 04:05:42;;;;;;;0.40;0.40;;;;;;;4.74;100.00;100331.63;5020523;28;20115;-80
2023/12/06 04:08:08;;;;;;;0.40;0.40;;;;;;;4.77;100.00;100322.50;5036328;28;20110;-81
2023/12/06 04:10:34;;;;;;;0.50;0.50;;;;;;;4.69;100.00;100314.44;5036680;28;20082;-80
2023/12/06 04:12:59;;;;;;;0.40;0.40;;;;;;;4.69;100.00;100319.75;5019900;28;20489;-80
2023/12/06 04:15:25;;;;;;;0.40;0.40;;;;;;;4.74;100.00;100318.31;5020544;28;20033;-80
2023/12/06 04:17:50;;;;;;;0.40;0.40;;;;;;;4.77;100.00;100310.03;5035968;28;20391;-80
2023/12/06 04:20:17;;;;;;;0.40;0.40;;;;;;;4.80;100.00;100306.22;5019873;28;20043;-80
2023/12/06 04:22:43;;;;;;;0.40;0.40;;;;;;;4.78;100.00;100309.03;5019832;28;20129;-80
2023/12/06 04:25:09;;;;;;;0.50;0.50;;;;;;;4.77;100.00;100299.38;5036196;28;20064;-80
2023/12/06 04:27:34;;;;;;;0.40;0.40;;;;;;;4.81;100.00;100298.06;5019707;28;20033;-80
2023/12/06 04:30:00;;;;;;;0.40;0.40;;;;;;;4.90;100.00;100292.84;5019441;28;20033;-80
2023/12/06 04:32:26;;;;;;;0.40;0.40;;;;;;;5.00;100.00;100296.25;5020257;28;20060;-80
2023/12/06 04:34:56;;;;;;;0.40;0.40;;;;;;;5.00;100.00;100282.94;5019688;28;20479;-80
2023/12/06 04:37:22;;;;;;;0.40;0.40;;;;;;;5.10;100.00;100290.88;5019330;28;20421;-81
2023/12/06 04:39:47;;;;;;;0.40;0.40;;;;;;;5.08;100.00;100288.38;5019579;28;20399;-80
2023/12/06 04:42:14;;;;;;;0.50;0.50;;;;;;;5.15;100.00;100277.94;5019654;28;20041;-81
2023/12/06 04:44:40;;;;;;;0.40;0.40;;;;;;;5.27;100.00;100280.22;5052034;28;20040;-80
2023/12/06 04:47:05;;;;;;;0.40;0.40;;;;;;;5.32;100.00;100266.44;5024023;28;20041;-80
2023/12/06 04:49:31;;;;;;;0.40;0.40;;;;;;;5.37;100.00;100277.47;5023385;28;20406;-80
2023/12/06 04:51:58;;;;;;;0.40;0.40;;;;;;;5.38;100.00;100251.66;5023517;28;20037;-81
2023/12/06 04:54:32;;;;;;;0.40;0.40;;;;;;;5.39;100.00;100262.16;5056269;28;20036;-80
2023/12/06 04:56:58;;;;;;;0.40;0.40;;;;;;;5.25;100.00;100262.69;5056194;28;20460;-80
2023/12/06 04:59:24;;;;;;;0.40;0.40;;;;;;;5.31;100.00;100255.91;5023708;28;20127;-80
2023/12/06 05:01:50;;;;;;;0.40;0.40;;;;;;;5.41;100.00;100251.34;5023485;28;20507;-80
2023/12/06 05:04:15;;;;;;;0.50;0.50;;;;;;;5.50;100.00;100243.25;5023971;28;20360;-81
2023/12/06 05:06:41;;;;;;;0.47;0.47;;;;;;;5.53;100.00;100242.09;5023354;28;20391;-80
2023/12/06 05:09:07;;;;;;;0.50;0.50;;;;;;;5.47;100.00;100240.03;5023096;28;20162;-80
2023/12/06 05:11:34;;;;;;;0.40;0.40;;;;;;;5.41;100.00;100240.69;5039684;28;20060;-81
2023/12/06 05:13:59;;;;;;;0.40;0.40;;;;;;;5.38;100.00;100241.81;5023064;28;20071;-81
2023/12/06 05:16:25;;;;;;;0.40;0.40;;;;;;;5.26;100.00;100238.53;5023178;28;20033;-80
2023/12/06 05:18:51;;;;;;;0.40;0.40;;;;;;;5.18;100.00;100246.47;5023086;28;20055;-80
2023/12/06 05:21:17;;;;;;;0.40;0.40;;;;;;;5.21;100.00;100232.00;5022744;28;20074;-80
2023/12/06 05:23:43;;;;;;;0.40;0.40;;;;;;;5.27;100.00;100228.75;5023273;28;20399;-80
2023/12/06 05:26:08;;;;;;;0.40;0.40;;;;;;;5.35;100.00;100220.81;5022787;28;20049;-81
2023/12/06 05:28:34;;;;;;;0.40;0.40;;;;;;;5.47;100.00;100219.53;5038790;28;20021;-80
2023/12/06 05:31:00;;;;;;;0.50;0.50;;;;;;;5.56;100.00;100225.78;5022397;28;20043;-81
2023/12/06 05:33:27;;;;;;;0.40;0.40;;;;;;;5.55;100.00;100212.59;5038761;28;20064;-80
2023/12/06 05:35:55;;;;;;;0.40;0.40;;;;;;;5.57;100.00;100214.13;5022736;28;20502;-80
2023/12/06 05:38:21;;;;;;;0.40;0.40;;;;;;;5.62;100.00;100206.47;5022405;28;20130;-80
2023/12/06 05:40:48;;;;;;;0.40;0.40;;;;;;;5.69;100.00;100204.88;5038926;28;20123;-80
2023/12/06 05:43:14;;;;;;;0.40;0.40;;;;;;;5.76;100.00;100201.56;5022905;28;20456;-81
2023/12/06 05:45:39;;;;;;;0.40;0.40;;;;;;;5.81;100.00;100199.25;5022629;28;20068;-80
2023/12/06 05:48:05;;;;;;;0.40;0.40;;;;;;;5.86;100.00;100187.09;5022533;28;20111;-80
2023/12/06 05:50:31;;;;;;;0.40;0.40;;;;;;;5.89;100.00;100191.28;5022095;28;20063;-80
2023/12/06 05:52:57;;;;;;;0.47;0.47;;;;;;;5.98;100.00;100182.38;5022349;28;20033;-80
2023/12/06 05:55:23;;;;;;;0.40;0.40;;;;;;;6.06;100.00;100171.72;5038877;28;20037;-80
2023/12/06 05:57:49;;;;;;;0.40;0.40;;;;;;;5.98;100.00;100160.16;5021276;28;20094;-80
2023/12/06 06:00:17;;;;;;;0.40;0.40;;;;;;;5.90;100.00;100171.59;5021552;28;20049;-80
2023/12/06 06:02:49;;;;;;;0.40;0.40;;;;;;;5.86;100.00;100172.94;5038926;28;20494;-80
2023/12/06 06:05:16;;;;;;;0.50;0.50;;;;;;;5.76;100.00;100166.88;5023099;28;20042;-80
2023/12/06 06:07:42;;;;;;;0.50;0.50;;;;;;;5.61;100.00;100167.47;5022072;28;20112;-80
2023/12/06 06:10:08;;;;;;;0.50;0.50;;;;;;;5.61;100.00;100175.47;5021778;28;20127;-80
2023/12/06 06:12:33;;;;;;;0.40;0.40;;;;;;;5.63;100.00;100170.81;5021919;28;20127;-80
2023/12/06 06:14:59;;;;;;;0.40;0.40;;;;;;;5.74;100.00;100183.03;5021638;28;20033;-79
2023/12/06 06:17:25;;;;;;;0.40;0.40;;;;;;;5.83;100.00;100176.75;5021705;28;20116;-80
2023/12/06 06:19:50;;;;;;;0.40;0.40;;;;;;;5.78;100.00;100171.06;5021930;28;20052;-80
2023/12/06 06:22:16;;;;;;;0.40;0.40;;;;;;;5.94;100.00;100186.34;5021852;28;20033;-80
2023/12/06 06:24:42;;;;;;;0.50;0.50;;;;;;;6.01;100.00;100175.88;5021834;28;20036;-80
2023/12/06 06:27:07;;;;;;;0.50;0.50;;;;;;;6.15;100.00;100170.75;5021772;28;20040;-80
2023/12/06 06:29:33;;;;;;;0.40;0.40;;;;;;;6.27;100.00;100167.78;5021522;28;20060;-79
2023/12/06 06:31:59;;;;;;;0.40;0.40;;;;;;;6.34;100.00;100168.81;5021313;28;20043;-80
2023/12/06 06:34:24;;;;;;;0.40;0.40;;;;;;;6.38;100.00;100172.84;5021508;28;20040;-80
2023/12/06 06:36:50;;;;;;;0.40;0.40;;;;;;;6.34;100.00;100144.78;5021690;28;20495;-80
2023/12/06 06:39:16;;;;;;;0.50;0.50;;;;;;;6.44;100.00;100169.50;5021535;28;20063;-80
2023/12/06 06:41:42;;;;;;;0.40;0.40;;;;;;;6.41;100.00;100161.00;5021062;28;20037;-80
2023/12/06 06:44:07;;;;;;;0.43;0.43;;;;;;;6.35;100.00;100151.78;5037458;28;20063;-80
2023/12/06 06:46:33;;;;;;;0.40;0.40;;;;;;;6.27;100.00;100157.09;5054451;28;20375;-80
2023/12/06 06:48:59;;;;;;;0.40;0.40;;;;;;;6.20;100.00;100156.91;5021269;28;20084;-80
2023/12/06 06:51:52;;;;;;;0.40;0.40;;;;;;;6.18;100.00;100148.22;5036803;28;20495;-80
2023/12/06 06:54:18;;;;;;;0.40;0.40;;;;;;;6.15;100.00;100145.91;5021707;28;20415;-80
2023/12/06 06:56:46;;;;;;;0.40;0.40;;;;;;;6.15;100.00;100144.06;5022097;28;20502;-80
2023/12/06 06:59:12;;;;;;;0.30;0.30;;;;;;;6.12;100.00;100128.38;5021050;28;20078;-80
2023/12/06 07:01:37;;;;;;;0.40;0.40;;;;;;;6.24;100.00;100138.75;5021141;28;20124;-79
2023/12/06 07:04:03;;;;;;;0.40;0.40;;;;;;;6.35;100.00;100130.41;5021015;28;20032;-80
2023/12/06 07:06:30;;;;;;;0.40;0.40;;;;;;;6.45;100.00;100131.09;5021047;28;20058;-80
2023/12/06 07:08:55;;;;;;;0.40;0.40;;;;;;;6.58;100.00;100117.28;5020815;28;20464;-80
2023/12/06 07:11:21;;;;;;;0.40;0.40;;;;;;;6.62;100.00;100107.09;5037392;28;20117;-80
2023/12/06 07:13:48;;;;;;;0.50;0.50;;;;;;;6.64;100.00;100105.91;5020992;28;20463;-80
2023/12/06 07:16:13;;;;;;;0.40;0.40;;;;;;;6.58;100.00;100102.06;5021539;28;20035;-81
2023/12/06 07:18:39;;;;;;;0.50;0.50;;;;;;;6.51;100.00;100103.75;5020848;28;20394;-80
2023/12/06 07:21:05;;;;;;;0.40;0.40;;;;;;;6.50;100.00;100101.25;5036845;28;20039;-80
2023/12/06 07:23:31;;;;;;;0.40;0.40;;;;;;;6.46;100.00;100098.06;5020318;28;20438;-80
2023/12/06 07:25:58;;;;;;;0.40;0.40;;;;;;;6.45;100.00;100093.72;5020552;28;20041;-80
2023/12/06 07:28:24;;;;;;;0.40;0.40;;;;;;;6.46;100.00;100086.56;5020741;28;20044;-80
2023/12/06 07:30:49;;;;;;;0.40;0.40;;;;;;;6.56;100.00;100077.38;5020308;28;20041;-80
2023/12/06 07:33:15;;;;;;;0.40;0.40;;;;;;;6.70;100.00;100072.38;5020357;28;20037;-80
2023/12/06 07:35:41;;;;;;;0.40;0.40;;;;;;;6.73;100.00;100082.72;5020568;28;20036;-80
2023/12/06 07:38:09;;;;;;;0.40;0.40;;;;;;;6.73;100.00;100085.41;5053519;28;20133;-80
2023/12/06 07:40:35;;;;;;;0.40;0.40;;;;;;;6.73;100.00;100077.38;5036584;28;20033;-79
2023/12/06 07:43:01;;;;;;;0.40;0.40;;;;;;;6.80;100.00;100065.00;5020394;28;20040;-80
2023/12/06 07:45:27;;;;;;;0.40;0.40;;;;;;;6.90;100.00;100075.53;5036546;28;20027;-80
2023/12/06 07:47:52;;;;;;;0.40;0.40;;;;;;;7.00;100.00;100060.97;5020390;28;20383;-80
2023/12/06 07:50:20;;;;;;;0.40;0.40;;;;;;;6.97;100.00;100053.28;5020077;28;20033;-79
2023/12/06 07:52:47;;;;;;;0.40;0.40;;;;;;;6.91;100.00;100053.97;5020323;28;20430;-80
2023/12/06 07:55:14;;;;;;;0.40;0.40;;;;;;;6.82;100.00;100049.63;5036350;28;20029;-80
2023/12/06 07:57:40;;;;;;;0.40;0.40;;;;;;;6.64;100.00;100035.63;5053203;28;20045;-80
2023/12/06 08:00:22;;;;;;;0.40;0.40;;;;;;;6.79;100.00;100056.16;5036446;28;20106;-80
2023/12/06 08:03:00;;;;;;;0.40;0.40;;;;;;;6.94;100.00;100056.31;5037250;28;20086;-80
2023/12/06 08:05:26;;;;;;;0.40;0.40;;;;;;;7.11;100.00;100041.06;5020223;28;20132;-81
2023/12/06 08:07:52;;;;;;;0.40;0.40;;;;;;;7.19;100.00;100035.69;5020025;28;20195;-80
2023/12/06 08:10:22;;;;;;;0.45;0.45;;;;;;;7.26;100.00;100038.53;5019697;28;20033;-80
2023/12/06 08:12:49;;;;;;;0.40;0.40;;;;;;;7.31;100.00;100044.19;5037068;28;20484;-80
2023/12/06 08:15:15;;;;;;;0.40;0.40;;;;;;;7.38;100.00;100039.84;5019654;28;20048;-80
2023/12/06 08:17:41;;;;;;;0.40;0.40;;;;;;;7.49;100.00;100020.72;5019833;28;20036;-80
2023/12/06 08:20:10;;;;;;;0.40;0.40;;;;;;;7.49;100.00;100042.13;5019336;28;20040;-80
2023/12/06 08:22:36;;;;;;;0.40;0.40;;;;;;;7.46;100.00;100020.22;5036613;28;20039;-80
2023/12/06 08:25:02;;;;;;;0.40;0.40;;;;;;;7.37;100.00;100002.56;5019742;28;20036;-80
2023/12/06 08:27:29;;;;;;;0.40;0.40;;;;;;;7.35;100.00;99991.19;5036229;28;20068;-79
2023/12/06 08:29:56;;;;;;;0.40;0.40;;;;;;;7.32;100.00;100010.25;5035471;28;20036;-80
2023/12/06 08:32:22;;;;;;;0.43;0.43;;;;;;;7.25;100.00;100010.09;5019634;28;20029;-80
2023/12/06 08:34:48;;;;;;;1.00;1.00;;;;;;;7.22;100.00;99994.41;5052157;28;20025;-80
2023/12/06 08:37:14;;;;;;;0.40;0.40;;;;;;;7.20;100.00;99980.41;5019603;28;20120;-80
2023/12/06 08:39:40;;;;;;;0.40;0.40;;;;;;;7.15;100.00;99980.09;5019616;28;20076;-79
2023/12/06 08:42:06;;;;;;;0.40;0.40;;;;;;;7.09;100.00;99978.91;5019466;28;20069;-80
2023/12/06 08:44:32;;;;;;;0.40;0.40;;;;;;;7.12;100.00;99969.72;5036000;28;20040;-79
2023/12/06 08:46:58;;;;;;;5.57;1.98;;;;;;;7.15;100.00;99970.22;5035525;28;20384;-80
2023/12/06 08:49:24;;;;;;;6.88;2.15;;;;;;;7.09;100.00;99959.38;5035436;28;20025;-80
2023/12/06 08:55:54;;;;;;;6.47;1.88;;;;;;;6.89;100.00;99943.75;5039969;28;20037;-80
2023/12/06 08:58:40;;;;;;;12.43;3.22;;;;;;;6.98;100.00;99937.34;5021008;28;20048;-80
2023/12/06 09:01:08;;;;;;;7.78;3.00;;;;;;;7.09;100.00;99952.19;4992292;28;20045;-80
2023/12/06 09:03:34;;;;;;;15.40;4.38;;;;;;;7.18;100.00;99959.19;5035202;28;20057;-79
2023/12/06 09:06:00;;;;;;;12.20;3.92;;;;;;;7.22;100.00;99959.66;5018824;28;20076;-80
2023/12/06 09:08:31;;;;;;;6.05;3.47;;;;;;;7.25;100.00;99932.56;5018205;28;20033;-81
2023/12/06 09:11:34;;;;;;;8.55;3.70;;;;;;;7.39;100.00;99945.22;5018827;28;20056;-81
2023/12/06 09:14:00;;;;;;;13.88;5.50;;;;;;;7.43;100.00;99937.66;4982440;28;20041;-81
2023/12/06 09:16:25;;;;;;;15.95;5.35;;;;;;;7.46;100.00;99927.47;5027431;28;20131;-81
2023/12/06 09:19:00;;;;;;;20.20;9.65;;;;;;;7.46;100.00;99930.13;5019114;28;20063;-81
2023/12/06 09:21:49;;;;;;;43.85;13.38;;;;;;;7.54;100.00;99923.06;5046383;28;20051;-82
2023/12/06 09:24:15;;;;;;;34.05;11.27;;;;;;;7.55;100.00;99932.75;5019125;28;20111;-82
2023/12/06 09:27:21;;;;;;;12.65;4.50;;;;;;;7.43;100.00;99917.09;5019007;28;20378;-82
2023/12/06 09:29:47;;;;;;;25.42;9.52;;;;;;;7.59;100.00;99926.84;5035218;28;20523;-81
2023/12/06 09:32:56;;;;;;;8.77;4.47;;;;;;;7.60;100.00;99900.97;5037705;28;20035;-83
2023/12/06 09:35:24;;;;;;;;;;;;;;;7.80;100.00;99925.38;5040185;28;20025;-82
2023/12/06 09:37:50;;;;;;;10.45;5.40;;;;;;;7.82;100.00;99901.97;5055756;28;19920;-82
2023/12/06 09:40:53;;;;;;;7.45;2.78;;;;;;;7.87;100.00;99905.75;5023283;28;20033;-82
2023/12/06 09:43:28;;;;;;;5.82;2.28;;;;;;;7.87;100.00;99911.13;5040129;28;20037;-81
2023/12/06 09:50:15;;;;;;;6.18;3.78;;;;;;;7.89;100.00;99885.00;5035120;28;20465;-81
2023/12/06 09:53:07;;;;;;;16.63;6.45;;;;;;;8.07;100.00;99902.59;5040888;28;20063;-81
2023/12/06 09:55:39;;;;;;;14.10;5.10;;;;;;;8.16;100.00;99906.88;5022306;28;20087;-81
2023/12/06 09:58:06;;;;;;;16.85;6.82;;;;;;;8.18;100.00;99891.47;5022019;28;20045;-81
2023/12/06 10:00:32;;;;;;;16.98;7.57;;;;;;;8.18;100.00;99891.47;5022202;28;20036;-81
2023/12/06 10:03:15;;;;;;;12.63;5.82;;;;;;;8.19;100.00;99898.47;5022255;28;20065;-81
2023/12/06 10:06:05;;;;;;;15.05;6.10;;;;;;;8.16;100.00;99880.09;5038089;28;20053;-81
2023/12/06 10:08:35;;;;;;;6.72;3.42;;;;;;;8.23;100.00;99894.44;5054877;28;20040;-82
2023/12/06 10:11:17;;;;;;;;;;;;;;;;;;;;;
2023/12/06 10:13:54;;;;;;;6.75;2.78;;;;;;;8.32;100.00;99884.47;5040534;28;20032;-82
2023/12/06 10:16:23;;;;;;;10.27;3.72;;;;;;;8.34;100.00;99880.59;5038080;28;20036;-82
2023/12/06 10:18:53;;;;;;;4.15;2.20;;;;;;;8.37;100.00;99869.50;5054391;28;20025;-82
2023/12/06 10:21:20;;;;;;;5.60;2.63;;;;;;;8.30;100.00;99862.38;5021680;28;20021;-82
2023/12/06 10:24:00;;;;;;;3.47;1.48;;;;;;;8.25;100.00;99860.25;5021764;28;20057;-82
2023/12/06 10:26:30;;;;;;;7.82;2.50;;;;;;;8.35;100.00;99854.63;5021747;28;20029;-82
2023/12/06 10:28:59;;;;;;;7.28;2.03;;;;;;;8.33;100.00;99860.16;5022324;28;20028;-82
2023/12/06 10:31:59;;;;;;;4.93;1.65;;;;;;;8.21;100.00;99836.72;5039785;28;20033;-81
2023/12/06 10:34:30;;;;;;;2.45;1.40;;;;;;;8.34;100.00;99853.81;5026401;28;20097;-83
2023/12/06 10:36:58;;;;;;;6.38;2.25;;;;;;;8.27;100.00;99846.69;5021694;28;20044;-81
2023/12/06 10:39:26;;;;;;;9.35;3.78;;;;;;;8.36;100.00;99846.44;5023713;28;20025;-81
2023/12/06 10:41:54;;;;;;;10.75;3.85;;;;;;;8.32;100.00;99829.03;5034189;28;20178;-81
2023/12/06 10:44:20;;;;;;;8.32;3.17;;;;;;;8.28;100.00;99830.44;5021715;28;20040;-81
2023/12/06 10:46:49;;;;;;;7.05;2.60;;;;;;;8.25;100.00;99824.59;5021171;28;20463;-80
2023/12/06 10:49:15;;;;;;;8.68;3.80;;;;;;;8.13;100.00;99786.75;5021170;28;20404;-81
2023/12/06 10:51:42;;;;;;;9.13;3.22;;;;;;;8.23;100.00;99819.44;5037233;28;20029;-81
2023/12/06 10:54:12;;;;;;;6.88;2.67;;;;;;;8.24;100.00;99809.56;5021923;28;20080;-81
2023/12/06 10:56:39;;;;;;;7.13;4.18;;;;;;;8.24;100.00;99807.72;5021023;28;20037;-81
2023/12/06 10:59:06;;;;;;;6.93;2.97;;;;;;;8.24;100.00;99809.56;5020799;28;20028;-81
2023/12/06 11:01:32;;;;;;;8.68;3.67;;;;;;;8.22;100.00;99792.84;5020934;28;20029;-81
2023/12/06 11:03:58;;;;;;;5.60;3.33;;;;;;;8.26;100.00;99794.97;5053982;28;20411;-81
2023/12/06 11:06:42;;;;;;;9.40;2.95;;;;;;;8.29;100.00;99794.59;5020829;28;20033;-81
2023/12/06 11:09:17;;;;;;;5.28;2.38;;;;;;;8.28;100.00;99789.41;5037421;28;20480;-81
2023/12/06 11:12:14;;;;;;;2.88;1.60;;;;;;;8.36;100.00;99782.13;5053763;28;20033;-82
2023/12/06 11:14:46;;;;;;;4.97;2.45;;;;;;;8.39;100.00;99780.97;5020590;28;20036;-81
2023/12/06 11:17:31;;;;;;;9.23;2.90;;;;;;;8.27;100.00;99761.81;5020859;28;20036;-80
2023/12/06 11:19:57;;;;;;;6.65;2.70;;;;;;;8.26;100.00;99775.41;5020790;28;20037;-80
2023/12/06 11:22:23;;;;;;;6.00;2.58;;;;;;;8.15;100.00;99763.31;5053657;28;20028;-81
2023/12/06 11:24:50;;;;;;;6.72;1.70;;;;;;;8.08;100.00;99770.41;5037210;28;20562;-81
2023/12/06 11:27:15;;;;;;;4.65;2.00;;;;;;;8.05;100.00;99776.13;5020236;28;20040;-80
2023/12/06 11:29:42;;;;;;;5.45;1.92;;;;;;;8.01;100.00;99753.41;5020521;28;20029;-81
2023/12/06 11:32:13;;;;;;;7.75;3.45;;;;;;;7.95;100.00;99738.09;5036692;28;20083;-80
2023/12/06 11:34:40;;;;;;;7.25;2.28;;;;;;;8.05;100.00;99757.38;5021173;28;20375;-81
2023/12/06 11:37:14;;;;;;;4.22;1.92;;;;;;;8.09;100.00;99742.59;5020403;28;20391;-80
2023/12/06 11:39:41;;;;;;;6.32;2.20;;;;;;;8.09;100.00;99727.38;5020520;28;20555;-80
2023/12/06 11:42:08;;;;;;;6.43;2.50;;;;;;;8.15;100.00;99737.34;5036429;28;20044;-81